sensor_id;sensor_type;location;lat;lon;timestamp;temperature;humidity
4687;DHT22;2357;47.316;-1.348;2023-02-01T00:01:22;8.90;99.90
4687;DHT22;2357;47.316;-1.348;2023-02-01T00:03:48;9.00;99.90
4687;DHT22;2357;47.316;-1.348;2023-02-01T00:06:13;9.00;99.90
4687;DHT22;2357;47.316;-1.348;2023-02-01T00:08:39;9.10;99.90
4687;DHT22;2357;47.316;-1.348;2023-02-01T00:11:07;9.10;99.90
4687;DHT22;2357;47.316;-1.348;2023-02-01T00:13:34;9.20;99.90
4687;DHT22;2357;47.316;-1.348;2023-02-01T00:16:12;9.10;99.90
4687;DHT22;2357;47.316;-1.348;2023-02-01T00:18:38;9.20;99.90
4687;DHT22;2357;47.316;-1.348;2023-02-01T00:21:04;9.20;99.90
4687;DHT22;2357;47.316;-1.348;2023-02-01T00:23:33;9.20;99.90
4687;DHT22;2357;47.316;-1.348;2023-02-01T00:26:06;9.20;99.90
4687;DHT22;2357;47.316;-1.348;2023-02-01T00:28:33;9.20;99.90
4687;DHT22;2357;47.316;-1.348;2023-02-01T00:31:03;9.20;99.90
4687;DHT22;2357;47.316;-1.348;2023-02-01T00:33:30;9.20;99.90
4687;DHT22;2357;47.316;-1.348;2023-02-01T00:35:58;9.20;99.90
4687;DHT22;2357;47.316;-1.348;2023-02-01T00:38:24;9.20;99.90
4687;DHT22;2357;47.316;-1.348;2023-02-01T00:40:50;9.20;99.90
4687;DHT22;2357;47.316;-1.348;2023-02-01T00:43:16;9.20;99.90
4687;DHT22;2357;47.316;-1.348;2023-02-01T00:45:41;9.20;99.90
4687;DHT22;2357;47.316;-1.348;2023-02-01T00:48:07;9.20;99.90
4687;DHT22;2357;47.316;-1.348;2023-02-01T00:50:33;9.20;99.90
4687;DHT22;2357;47.316;-1.348;2023-02-01T00:52:58;9.20;99.90
4687;DHT22;2357;47.316;-1.348;2023-02-01T00:55:25;9.20;99.90
4687;DHT22;2357;47.316;-1.348;2023-02-01T00:57:50;9.20;99.90
4687;DHT22;2357;47.316;-1.348;2023-02-01T01:00:16;9.20;99.90
4687;DHT22;2357;47.316;-1.348;2023-02-01T01:02:42;9.20;99.90
4687;DHT22;2357;47.316;-1.348;2023-02-01T01:05:08;9.20;99.90
4687;DHT22;2357;47.316;-1.348;2023-02-01T01:07:33;9.20;99.90
4687;DHT22;2357;47.316;-1.348;2023-02-01T01:09:59;9.20;99.90
4687;DHT22;2357;47.316;-1.348;2023-02-01T01:12:25;9.20;99.90
4687;DHT22;2357;47.316;-1.348;2023-02-01T01:14:51;9.20;99.90
4687;DHT22;2357;47.316;-1.348;2023-02-01T01:17:16;9.10;99.90
4687;DHT22;2357;47.316;-1.348;2023-02-01T01:19:42;9.10;99.90
4687;DHT22;2357;47.316;-1.348;2023-02-01T01:22:07;9.10;99.90
4687;DHT22;2357;47.316;-1.348;2023-02-01T01:24:33;9.10;99.90
4687;DHT22;2357;47.316;-1.348;2023-02-01T01:26:59;9.10;99.90
4687;DHT22;2357;47.316;-1.348;2023-02-01T01:29:25;9.10;99.90
4687;DHT22;2357;47.316;-1.348;2023-02-01T01:31:50;9.00;99.90
4687;DHT22;2357;47.316;-1.348;2023-02-01T01:34:16;9.10;99.90
4687;DHT22;2357;47.316;-1.348;2023-02-01T01:36:41;9.00;99.90
4687;DHT22;2357;47.316;-1.348;2023-02-01T01:39:07;8.90;99.90
4687;DHT22;2357;47.316;-1.348;2023-02-01T01:41:33;9.00;99.90
4687;DHT22;2357;47.316;-1.348;2023-02-01T01:46:29;9.00;99.90
4687;DHT22;2357;47.316;-1.348;2023-02-01T01:49:10;8.90;99.90
4687;DHT22;2357;47.316;-1.348;2023-02-01T01:51:43;9.00;99.90
4687;DHT22;2357;47.316;-1.348;2023-02-01T01:54:21;9.00;99.90
4687;DHT22;2357;47.316;-1.348;2023-02-01T01:56:55;9.00;99.90
4687;DHT22;2357;47.316;-1.348;2023-02-01T01:59:24;9.00;99.90
4687;DHT22;2357;47.316;-1.348;2023-02-01T02:01:50;8.90;99.90
4687;DHT22;2357;47.316;-1.348;2023-02-01T02:04:16;9.00;99.90
4687;DHT22;2357;47.316;-1.348;2023-02-01T02:09:18;8.90;99.90
4687;DHT22;2357;47.316;-1.348;2023-02-01T02:11:43;9.00;99.90
4687;DHT22;2357;47.316;-1.348;2023-02-01T02:14:12;9.00;99.90
4687;DHT22;2357;47.316;-1.348;2023-02-01T02:48:25;9.00;99.90
4687;DHT22;2357;47.316;-1.348;2023-02-01T02:54:07;8.90;99.90
4687;DHT22;2357;47.316;-1.348;2023-02-01T02:56:53;8.90;99.90
4687;DHT22;2357;47.316;-1.348;2023-02-01T02:59:40;8.90;99.90
4687;DHT22;2357;47.316;-1.348;2023-02-01T03:02:27;8.90;99.90
4687;DHT22;2357;47.316;-1.348;2023-02-01T03:05:12;8.80;99.90
4687;DHT22;2357;47.316;-1.348;2023-02-01T03:18:17;8.80;99.90
4687;DHT22;2357;47.316;-1.348;2023-02-01T03:20:48;8.80;99.90
4687;DHT22;2357;47.316;-1.348;2023-02-01T03:23:19;8.80;99.90
4687;DHT22;2357;47.316;-1.348;2023-02-01T03:25:48;8.70;99.90
4687;DHT22;2357;47.316;-1.348;2023-02-01T03:28:17;8.70;99.90
4687;DHT22;2357;47.316;-1.348;2023-02-01T03:30:46;8.70;99.90
4687;DHT22;2357;47.316;-1.348;2023-02-01T03:33:16;8.70;99.90
4687;DHT22;2357;47.316;-1.348;2023-02-01T03:38:53;8.70;99.90
4687;DHT22;2357;47.316;-1.348;2023-02-01T03:41:40;8.50;99.90
4687;DHT22;2357;47.316;-1.348;2023-02-01T03:44:16;8.60;99.90
4687;DHT22;2357;47.316;-1.348;2023-02-01T03:49:36;8.60;99.90
4687;DHT22;2357;47.316;-1.348;2023-02-01T03:52:05;8.50;99.90
4687;DHT22;2357;47.316;-1.348;2023-02-01T03:54:33;8.40;99.90
4687;DHT22;2357;47.316;-1.348;2023-02-01T03:57:03;8.50;99.90
4687;DHT22;2357;47.316;-1.348;2023-02-01T03:59:30;8.30;99.90
4687;DHT22;2357;47.316;-1.348;2023-02-01T04:01:56;8.30;99.90
4687;DHT22;2357;47.316;-1.348;2023-02-01T04:04:21;8.50;99.90
4687;DHT22;2357;47.316;-1.348;2023-02-01T04:06:48;8.50;99.90
4687;DHT22;2357;47.316;-1.348;2023-02-01T04:09:14;8.60;99.90
4687;DHT22;2357;47.316;-1.348;2023-02-01T04:11:40;8.60;99.90
4687;DHT22;2357;47.316;-1.348;2023-02-01T04:14:05;8.60;99.90
4687;DHT22;2357;47.316;-1.348;2023-02-01T04:16:32;8.60;99.90
4687;DHT22;2357;47.316;-1.348;2023-02-01T04:18:58;8.70;99.90
4687;DHT22;2357;47.316;-1.348;2023-02-01T04:21:24;8.70;99.90
4687;DHT22;2357;47.316;-1.348;2023-02-01T04:23:50;8.70;99.90
4687;DHT22;2357;47.316;-1.348;2023-02-01T04:26:16;8.70;99.90
4687;DHT22;2357;47.316;-1.348;2023-02-01T04:28:42;8.70;99.90
4687;DHT22;2357;47.316;-1.348;2023-02-01T04:31:07;8.70;99.90
4687;DHT22;2357;47.316;-1.348;2023-02-01T04:33:33;8.70;99.90
4687;DHT22;2357;47.316;-1.348;2023-02-01T04:35:59;8.60;99.90
4687;DHT22;2357;47.316;-1.348;2023-02-01T04:38:25;8.60;99.90
4687;DHT22;2357;47.316;-1.348;2023-02-01T04:40:50;8.70;99.90
4687;DHT22;2357;47.316;-1.348;2023-02-01T04:43:17;8.70;99.90
4687;DHT22;2357;47.316;-1.348;2023-02-01T04:45:50;8.70;99.90
4687;DHT22;2357;47.316;-1.348;2023-02-01T04:48:19;8.60;99.90
4687;DHT22;2357;47.316;-1.348;2023-02-01T04:50:46;8.60;99.90
4687;DHT22;2357;47.316;-1.348;2023-02-01T04:53:16;8.60;99.90
4687;DHT22;2357;47.316;-1.348;2023-02-01T04:55:43;8.60;99.90
4687;DHT22;2357;47.316;-1.348;2023-02-01T04:58:09;8.60;99.90
4687;DHT22;2357;47.316;-1.348;2023-02-01T05:00:35;8.60;99.90
4687;DHT22;2357;47.316;-1.348;2023-02-01T05:03:01;8.60;99.90
4687;DHT22;2357;47.316;-1.348;2023-02-01T05:05:27;8.60;99.90
4687;DHT22;2357;47.316;-1.348;2023-02-01T05:07:53;8.60;99.90
4687;DHT22;2357;47.316;-1.348;2023-02-01T05:10:19;8.50;99.90
4687;DHT22;2357;47.316;-1.348;2023-02-01T05:12:45;8.40;99.90
4687;DHT22;2357;47.316;-1.348;2023-02-01T05:15:30;8.40;99.90
4687;DHT22;2357;47.316;-1.348;2023-02-01T05:17:56;8.40;99.90
4687;DHT22;2357;47.316;-1.348;2023-02-01T05:20:21;8.30;99.90
4687;DHT22;2357;47.316;-1.348;2023-02-01T05:22:47;8.30;99.90
4687;DHT22;2357;47.316;-1.348;2023-02-01T05:25:13;8.20;99.90
4687;DHT22;2357;47.316;-1.348;2023-02-01T05:27:38;8.20;99.90
4687;DHT22;2357;47.316;-1.348;2023-02-01T05:30:05;8.10;99.90
4687;DHT22;2357;47.316;-1.348;2023-02-01T05:32:31;8.10;99.90
4687;DHT22;2357;47.316;-1.348;2023-02-01T05:34:57;8.00;99.90
4687;DHT22;2357;47.316;-1.348;2023-02-01T05:37:22;8.00;99.90
4687;DHT22;2357;47.316;-1.348;2023-02-01T05:39:48;8.00;99.90
4687;DHT22;2357;47.316;-1.348;2023-02-01T05:42:14;8.00;99.90
4687;DHT22;2357;47.316;-1.348;2023-02-01T05:44:40;8.00;99.90
4687;DHT22;2357;47.316;-1.348;2023-02-01T05:47:06;8.00;99.90
4687;DHT22;2357;47.316;-1.348;2023-02-01T05:49:31;7.90;99.90
4687;DHT22;2357;47.316;-1.348;2023-02-01T05:51:57;7.90;99.90
4687;DHT22;2357;47.316;-1.348;2023-02-01T05:54:22;8.00;99.90
4687;DHT22;2357;47.316;-1.348;2023-02-01T05:56:48;8.00;99.90
4687;DHT22;2357;47.316;-1.348;2023-02-01T05:59:14;8.00;99.90
4687;DHT22;2357;47.316;-1.348;2023-02-01T06:01:39;8.00;99.90
4687;DHT22;2357;47.316;-1.348;2023-02-01T06:04:05;8.10;99.90
4687;DHT22;2357;47.316;-1.348;2023-02-01T06:06:30;8.10;99.90
4687;DHT22;2357;47.316;-1.348;2023-02-01T06:08:56;8.10;99.90
4687;DHT22;2357;47.316;-1.348;2023-02-01T06:11:22;8.10;99.90
4687;DHT22;2357;47.316;-1.348;2023-02-01T06:13:47;8.10;99.90
4687;DHT22;2357;47.316;-1.348;2023-02-01T06:16:13;8.20;99.90
4687;DHT22;2357;47.316;-1.348;2023-02-01T06:18:40;8.20;99.90
4687;DHT22;2357;47.316;-1.348;2023-02-01T06:21:07;8.10;99.90
4687;DHT22;2357;47.316;-1.348;2023-02-01T06:23:34;8.10;99.90
4687;DHT22;2357;47.316;-1.348;2023-02-01T06:26:04;8.10;99.90
4687;DHT22;2357;47.316;-1.348;2023-02-01T06:28:31;8.10;99.90
4687;DHT22;2357;47.316;-1.348;2023-02-01T06:30:58;8.00;99.90
4687;DHT22;2357;47.316;-1.348;2023-02-01T06:33:24;8.10;99.90
4687;DHT22;2357;47.316;-1.348;2023-02-01T06:35:57;8.10;99.90
4687;DHT22;2357;47.316;-1.348;2023-02-01T06:38:24;8.10;99.90
4687;DHT22;2357;47.316;-1.348;2023-02-01T06:40:53;8.20;99.90
4687;DHT22;2357;47.316;-1.348;2023-02-01T06:43:20;8.30;99.90
4687;DHT22;2357;47.316;-1.348;2023-02-01T06:45:46;8.20;99.90
4687;DHT22;2357;47.316;-1.348;2023-02-01T06:48:11;8.30;99.90
4687;DHT22;2357;47.316;-1.348;2023-02-01T06:50:37;8.20;99.90
4687;DHT22;2357;47.316;-1.348;2023-02-01T06:53:03;8.20;99.90
4687;DHT22;2357;47.316;-1.348;2023-02-01T06:55:28;8.20;99.90
4687;DHT22;2357;47.316;-1.348;2023-02-01T06:57:55;8.20;99.90
4687;DHT22;2357;47.316;-1.348;2023-02-01T07:00:22;8.20;99.90
4687;DHT22;2357;47.316;-1.348;2023-02-01T07:02:47;8.30;99.90
4687;DHT22;2357;47.316;-1.348;2023-02-01T07:05:13;8.20;99.90
4687;DHT22;2357;47.316;-1.348;2023-02-01T07:07:39;8.20;99.90
4687;DHT22;2357;47.316;-1.348;2023-02-01T07:10:04;8.20;99.90
4687;DHT22;2357;47.316;-1.348;2023-02-01T07:12:30;8.20;99.90
4687;DHT22;2357;47.316;-1.348;2023-02-01T07:14:56;8.30;99.90
4687;DHT22;2357;47.316;-1.348;2023-02-01T07:17:22;8.20;99.90
4687;DHT22;2357;47.316;-1.348;2023-02-01T07:19:48;8.30;99.90
4687;DHT22;2357;47.316;-1.348;2023-02-01T07:22:16;8.30;99.90
4687;DHT22;2357;47.316;-1.348;2023-02-01T07:24:42;8.30;99.90
4687;DHT22;2357;47.316;-1.348;2023-02-01T07:27:07;8.30;99.90
4687;DHT22;2357;47.316;-1.348;2023-02-01T07:29:33;8.20;99.90
4687;DHT22;2357;47.316;-1.348;2023-02-01T07:31:59;8.20;99.90
4687;DHT22;2357;47.316;-1.348;2023-02-01T07:34:25;8.20;99.90
4687;DHT22;2357;47.316;-1.348;2023-02-01T07:36:51;8.20;99.90
4687;DHT22;2357;47.316;-1.348;2023-02-01T07:39:16;8.20;99.90
4687;DHT22;2357;47.316;-1.348;2023-02-01T07:41:42;8.30;99.90
4687;DHT22;2357;47.316;-1.348;2023-02-01T07:44:08;8.20;99.90
4687;DHT22;2357;47.316;-1.348;2023-02-01T07:46:33;8.20;99.90
4687;DHT22;2357;47.316;-1.348;2023-02-01T07:48:59;8.10;99.90
4687;DHT22;2357;47.316;-1.348;2023-02-01T07:51:25;8.20;99.90
4687;DHT22;2357;47.316;-1.348;2023-02-01T07:53:51;8.20;99.90
4687;DHT22;2357;47.316;-1.348;2023-02-01T07:56:18;8.20;99.90
4687;DHT22;2357;47.316;-1.348;2023-02-01T07:58:49;8.30;99.90
4687;DHT22;2357;47.316;-1.348;2023-02-01T08:01:20;8.20;99.90
4687;DHT22;2357;47.316;-1.348;2023-02-01T08:03:47;8.30;99.90
4687;DHT22;2357;47.316;-1.348;2023-02-01T08:06:13;8.20;99.90
4687;DHT22;2357;47.316;-1.348;2023-02-01T08:08:39;8.20;99.90
4687;DHT22;2357;47.316;-1.348;2023-02-01T08:11:06;8.20;99.90
4687;DHT22;2357;47.316;-1.348;2023-02-01T08:13:33;8.30;99.90
4687;DHT22;2357;47.316;-1.348;2023-02-01T08:15:59;8.30;99.90
4687;DHT22;2357;47.316;-1.348;2023-02-01T08:18:25;8.30;99.90
4687;DHT22;2357;47.316;-1.348;2023-02-01T08:20:51;8.40;99.90
4687;DHT22;2357;47.316;-1.348;2023-02-01T08:23:17;8.30;99.90
4687;DHT22;2357;47.316;-1.348;2023-02-01T08:25:43;8.40;99.90
4687;DHT22;2357;47.316;-1.348;2023-02-01T08:28:09;8.30;99.90
4687;DHT22;2357;47.316;-1.348;2023-02-01T08:30:37;8.40;99.90
4687;DHT22;2357;47.316;-1.348;2023-02-01T08:33:04;8.40;99.90
4687;DHT22;2357;47.316;-1.348;2023-02-01T08:35:34;8.40;99.90
4687;DHT22;2357;47.316;-1.348;2023-02-01T08:38:00;8.50;99.90
4687;DHT22;2357;47.316;-1.348;2023-02-01T08:40:26;8.50;99.90
4687;DHT22;2357;47.316;-1.348;2023-02-01T08:42:51;8.60;99.90
4687;DHT22;2357;47.316;-1.348;2023-02-01T08:45:27;8.60;99.90
4687;DHT22;2357;47.316;-1.348;2023-02-01T08:47:57;8.60;99.90
4687;DHT22;2357;47.316;-1.348;2023-02-01T08:50:23;8.70;99.90
4687;DHT22;2357;47.316;-1.348;2023-02-01T08:52:50;8.70;99.90
4687;DHT22;2357;47.316;-1.348;2023-02-01T08:55:16;8.80;99.90
4687;DHT22;2357;47.316;-1.348;2023-02-01T08:57:42;8.80;99.90
4687;DHT22;2357;47.316;-1.348;2023-02-01T09:00:11;8.80;99.90
4687;DHT22;2357;47.316;-1.348;2023-02-01T09:02:37;8.80;99.90
4687;DHT22;2357;47.316;-1.348;2023-02-01T09:05:03;8.80;99.90
4687;DHT22;2357;47.316;-1.348;2023-02-01T09:07:29;8.90;99.90
4687;DHT22;2357;47.316;-1.348;2023-02-01T09:09:55;8.90;99.90
4687;DHT22;2357;47.316;-1.348;2023-02-01T09:12:22;9.00;99.90
4687;DHT22;2357;47.316;-1.348;2023-02-01T09:14:47;9.00;99.90
4687;DHT22;2357;47.316;-1.348;2023-02-01T09:17:13;9.10;99.90
4687;DHT22;2357;47.316;-1.348;2023-02-01T09:19:39;9.10;99.90
4687;DHT22;2357;47.316;-1.348;2023-02-01T09:22:05;9.10;99.90
4687;DHT22;2357;47.316;-1.348;2023-02-01T09:24:31;9.20;99.90
4687;DHT22;2357;47.316;-1.348;2023-02-01T09:26:56;9.20;99.90
4687;DHT22;2357;47.316;-1.348;2023-02-01T09:29:22;9.20;99.90
4687;DHT22;2357;47.316;-1.348;2023-02-01T09:31:48;9.20;99.90
4687;DHT22;2357;47.316;-1.348;2023-02-01T09:34:13;9.20;99.90
4687;DHT22;2357;47.316;-1.348;2023-02-01T09:36:39;9.30;99.90
4687;DHT22;2357;47.316;-1.348;2023-02-01T09:39:05;9.30;99.90
4687;DHT22;2357;47.316;-1.348;2023-02-01T09:41:59;9.30;99.90
4687;DHT22;2357;47.316;-1.348;2023-02-01T09:47:23;9.30;99.90
4687;DHT22;2357;47.316;-1.348;2023-02-01T09:50:17;9.40;99.90
4687;DHT22;2357;47.316;-1.348;2023-02-01T09:53:00;9.40;99.90
4687;DHT22;2357;47.316;-1.348;2023-02-01T09:55:36;9.50;99.90
4687;DHT22;2357;47.316;-1.348;2023-02-01T09:58:12;9.50;99.90
4687;DHT22;2357;47.316;-1.348;2023-02-01T10:00:49;9.50;99.90
4687;DHT22;2357;47.316;-1.348;2023-02-01T10:03:16;9.50;99.90
4687;DHT22;2357;47.316;-1.348;2023-02-01T10:15:02;9.60;99.90
4687;DHT22;2357;47.316;-1.348;2023-02-01T10:17:18;9.70;99.90
4687;DHT22;2357;47.316;-1.348;2023-02-01T10:22:45;9.80;99.90
4687;DHT22;2357;47.316;-1.348;2023-02-01T10:25:26;9.80;99.90
4687;DHT22;2357;47.316;-1.348;2023-02-01T10:27:53;9.90;99.90
4687;DHT22;2357;47.316;-1.348;2023-02-01T10:30:22;10.00;99.90
4687;DHT22;2357;47.316;-1.348;2023-02-01T10:33:31;10.00;99.90
4687;DHT22;2357;47.316;-1.348;2023-02-01T10:35:58;10.00;99.90
4687;DHT22;2357;47.316;-1.348;2023-02-01T10:38:29;9.90;99.90
4687;DHT22;2357;47.316;-1.348;2023-02-01T10:41:04;10.10;99.90
4687;DHT22;2357;47.316;-1.348;2023-02-01T10:43:35;10.10;99.90
4687;DHT22;2357;47.316;-1.348;2023-02-01T10:46:01;10.30;99.90
4687;DHT22;2357;47.316;-1.348;2023-02-01T10:48:27;10.40;99.90
4687;DHT22;2357;47.316;-1.348;2023-02-01T10:51:26;10.40;99.90
4687;DHT22;2357;47.316;-1.348;2023-02-01T10:54:05;10.50;99.90
4687;DHT22;2357;47.316;-1.348;2023-02-01T10:56:37;10.50;99.90
4687;DHT22;2357;47.316;-1.348;2023-02-01T10:59:05;10.70;99.90
4687;DHT22;2357;47.316;-1.348;2023-02-01T11:01:36;10.60;99.90
4687;DHT22;2357;47.316;-1.348;2023-02-01T11:04:04;10.70;99.90
4687;DHT22;2357;47.316;-1.348;2023-02-01T11:06:33;10.80;99.90
4687;DHT22;2357;47.316;-1.348;2023-02-01T11:09:22;10.70;99.90
4687;DHT22;2357;47.316;-1.348;2023-02-01T11:16:53;10.90;99.90
4687;DHT22;2357;47.316;-1.348;2023-02-01T11:19:19;10.90;99.90
4687;DHT22;2357;47.316;-1.348;2023-02-01T11:21:50;10.90;99.90
4687;DHT22;2357;47.316;-1.348;2023-02-01T11:24:25;10.90;99.90
4687;DHT22;2357;47.316;-1.348;2023-02-01T11:26:55;10.90;99.90
4687;DHT22;2357;47.316;-1.348;2023-02-01T11:29:21;10.90;99.90
4687;DHT22;2357;47.316;-1.348;2023-02-01T11:31:58;11.00;99.90
4687;DHT22;2357;47.316;-1.348;2023-02-01T11:34:28;11.00;99.90
4687;DHT22;2357;47.316;-1.348;2023-02-01T11:36:56;11.00;99.90
4687;DHT22;2357;47.316;-1.348;2023-02-01T11:39:33;11.10;99.90
4687;DHT22;2357;47.316;-1.348;2023-02-01T11:42:13;10.90;99.90
4687;DHT22;2357;47.316;-1.348;2023-02-01T11:44:42;11.00;99.90
4687;DHT22;2357;47.316;-1.348;2023-02-01T11:47:20;11.20;99.90
4687;DHT22;2357;47.316;-1.348;2023-02-01T11:49:48;10.80;99.90
4687;DHT22;2357;47.316;-1.348;2023-02-01T11:57:37;11.10;99.90
4687;DHT22;2357;47.316;-1.348;2023-02-01T12:00:15;11.10;99.90
4687;DHT22;2357;47.316;-1.348;2023-02-01T12:20:02;11.20;99.90
4687;DHT22;2357;47.316;-1.348;2023-02-01T12:22:38;11.20;99.90
4687;DHT22;2357;47.316;-1.348;2023-02-01T12:36:48;11.40;99.90
4687;DHT22;2357;47.316;-1.348;2023-02-01T12:42:04;11.30;99.90
4687;DHT22;2357;47.316;-1.348;2023-02-01T12:44:53;11.20;99.90
4687;DHT22;2357;47.316;-1.348;2023-02-01T12:50:03;11.30;99.90
4687;DHT22;2357;47.316;-1.348;2023-02-01T12:52:39;11.40;99.90
4687;DHT22;2357;47.316;-1.348;2023-02-01T12:58:11;11.40;99.90
4687;DHT22;2357;47.316;-1.348;2023-02-01T13:00:46;11.50;99.90
4687;DHT22;2357;47.316;-1.348;2023-02-01T13:03:38;11.60;99.90
4687;DHT22;2357;47.316;-1.348;2023-02-01T13:06:13;11.70;99.90
4687;DHT22;2357;47.316;-1.348;2023-02-01T13:08:58;11.90;99.90
4687;DHT22;2357;47.316;-1.348;2023-02-01T13:11:45;12.30;99.90
4687;DHT22;2357;47.316;-1.348;2023-02-01T13:14:49;12.30;99.90
4687;DHT22;2357;47.316;-1.348;2023-02-01T13:17:27;12.30;99.90
4687;DHT22;2357;47.316;-1.348;2023-02-01T13:22:54;12.70;99.90
4687;DHT22;2357;47.316;-1.348;2023-02-01T13:25:34;12.90;99.90
4687;DHT22;2357;47.316;-1.348;2023-02-01T13:28:06;12.80;99.90
4687;DHT22;2357;47.316;-1.348;2023-02-01T13:30:58;12.80;99.90
4687;DHT22;2357;47.316;-1.348;2023-02-01T13:36:22;12.20;99.90
4687;DHT22;2357;47.316;-1.348;2023-02-01T13:44:16;12.50;99.90
4687;DHT22;2357;47.316;-1.348;2023-02-01T13:46:46;12.50;99.90
4687;DHT22;2357;47.316;-1.348;2023-02-01T13:49:20;12.30;99.90
4687;DHT22;2357;47.316;-1.348;2023-02-01T13:51:50;12.40;99.90
4687;DHT22;2357;47.316;-1.348;2023-02-01T13:54:43;12.20;99.90
4687;DHT22;2357;47.316;-1.348;2023-02-01T13:57:36;12.10;99.90
4687;DHT22;2357;47.316;-1.348;2023-02-01T14:13:34;11.70;99.90
4687;DHT22;2357;47.316;-1.348;2023-02-01T14:21:19;11.70;99.90
4687;DHT22;2357;47.316;-1.348;2023-02-01T14:28:59;11.90;99.90
4687;DHT22;2357;47.316;-1.348;2023-02-01T14:31:42;11.90;99.90
4687;DHT22;2357;47.316;-1.348;2023-02-01T14:34:18;11.90;99.90
4687;DHT22;2357;47.316;-1.348;2023-02-01T14:36:52;11.90;99.90
4687;DHT22;2357;47.316;-1.348;2023-02-01T14:39:29;11.90;99.90
4687;DHT22;2357;47.316;-1.348;2023-02-01T14:42:05;11.90;99.90
4687;DHT22;2357;47.316;-1.348;2023-02-01T14:44:34;11.70;99.90
4687;DHT22;2357;47.316;-1.348;2023-02-01T14:52:47;11.60;99.90
4687;DHT22;2357;47.316;-1.348;2023-02-01T14:55:16;11.70;99.90
4687;DHT22;2357;47.316;-1.348;2023-02-01T14:57:47;11.60;99.90
4687;DHT22;2357;47.316;-1.348;2023-02-01T15:00:20;11.60;99.90
4687;DHT22;2357;47.316;-1.348;2023-02-01T15:02:48;11.50;99.90
4687;DHT22;2357;47.316;-1.348;2023-02-01T15:07:55;11.40;99.90
4687;DHT22;2357;47.316;-1.348;2023-02-01T15:10:22;11.30;99.90
4687;DHT22;2357;47.316;-1.348;2023-02-01T15:12:48;11.40;99.90
4687;DHT22;2357;47.316;-1.348;2023-02-01T15:15:19;11.40;99.90
4687;DHT22;2357;47.316;-1.348;2023-02-01T15:17:58;11.30;99.90
4687;DHT22;2357;47.316;-1.348;2023-02-01T15:20:30;11.40;99.90
4687;DHT22;2357;47.316;-1.348;2023-02-01T15:23:14;11.30;99.90
4687;DHT22;2357;47.316;-1.348;2023-02-01T15:25:45;11.30;99.90
4687;DHT22;2357;47.316;-1.348;2023-02-01T15:28:15;11.20;99.90
4687;DHT22;2357;47.316;-1.348;2023-02-01T15:30:55;11.30;99.90
4687;DHT22;2357;47.316;-1.348;2023-02-01T15:33:22;11.20;99.90
4687;DHT22;2357;47.316;-1.348;2023-02-01T15:35:48;11.20;99.90
4687;DHT22;2357;47.316;-1.348;2023-02-01T15:41:18;11.00;99.90
4687;DHT22;2357;47.316;-1.348;2023-02-01T15:46:16;11.10;99.90
4687;DHT22;2357;47.316;-1.348;2023-02-01T15:48:49;11.10;99.90
4687;DHT22;2357;47.316;-1.348;2023-02-01T15:51:21;11.10;99.90
4687;DHT22;2357;47.316;-1.348;2023-02-01T15:54:05;11.10;99.90
4687;DHT22;2357;47.316;-1.348;2023-02-01T15:56:38;11.10;99.90
4687;DHT22;2357;47.316;-1.348;2023-02-01T15:59:22;11.10;99.90
4687;DHT22;2357;47.316;-1.348;2023-02-01T16:01:50;11.10;99.90
4687;DHT22;2357;47.316;-1.348;2023-02-01T16:07:02;11.20;99.90
4687;DHT22;2357;47.316;-1.348;2023-02-01T16:09:40;11.20;99.90
4687;DHT22;2357;47.316;-1.348;2023-02-01T16:15:00;11.10;99.90
4687;DHT22;2357;47.316;-1.348;2023-02-01T16:17:26;11.20;99.90
4687;DHT22;2357;47.316;-1.348;2023-02-01T16:19:51;11.10;99.90
4687;DHT22;2357;47.316;-1.348;2023-02-01T16:22:17;11.10;99.90
4687;DHT22;2357;47.316;-1.348;2023-02-01T16:24:43;11.10;99.90
4687;DHT22;2357;47.316;-1.348;2023-02-01T16:27:08;11.10;99.90
4687;DHT22;2357;47.316;-1.348;2023-02-01T16:29:34;11.00;99.90
4687;DHT22;2357;47.316;-1.348;2023-02-01T16:32:00;11.00;99.90
4687;DHT22;2357;47.316;-1.348;2023-02-01T16:34:26;11.00;99.90
4687;DHT22;2357;47.316;-1.348;2023-02-01T16:36:51;11.00;99.90
4687;DHT22;2357;47.316;-1.348;2023-02-01T16:39:20;11.00;99.90
4687;DHT22;2357;47.316;-1.348;2023-02-01T16:41:45;10.90;99.90
4687;DHT22;2357;47.316;-1.348;2023-02-01T16:44:11;10.90;99.90
4687;DHT22;2357;47.316;-1.348;2023-02-01T16:46:44;10.90;99.90
4687;DHT22;2357;47.316;-1.348;2023-02-01T16:49:22;10.90;99.90
4687;DHT22;2357;47.316;-1.348;2023-02-01T16:51:49;10.90;99.90
4687;DHT22;2357;47.316;-1.348;2023-02-01T16:54:16;10.90;99.90
4687;DHT22;2357;47.316;-1.348;2023-02-01T16:56:42;10.90;99.90
4687;DHT22;2357;47.316;-1.348;2023-02-01T16:59:09;10.80;99.90
4687;DHT22;2357;47.316;-1.348;2023-02-01T17:01:35;10.80;99.90
4687;DHT22;2357;47.316;-1.348;2023-02-01T17:04:03;10.80;99.90
4687;DHT22;2357;47.316;-1.348;2023-02-01T17:06:29;10.80;99.90
4687;DHT22;2357;47.316;-1.348;2023-02-01T17:08:58;10.80;99.90
4687;DHT22;2357;47.316;-1.348;2023-02-01T17:11:25;10.70;99.90
4687;DHT22;2357;47.316;-1.348;2023-02-01T17:13:50;10.70;99.90
4687;DHT22;2357;47.316;-1.348;2023-02-01T17:16:26;10.80;99.90
4687;DHT22;2357;47.316;-1.348;2023-02-01T17:19:10;10.70;99.90
4687;DHT22;2357;47.316;-1.348;2023-02-01T17:21:44;10.70;99.90
4687;DHT22;2357;47.316;-1.348;2023-02-01T17:24:13;10.70;99.90
4687;DHT22;2357;47.316;-1.348;2023-02-01T17:26:39;10.70;99.90
4687;DHT22;2357;47.316;-1.348;2023-02-01T17:29:05;10.60;99.90
4687;DHT22;2357;47.316;-1.348;2023-02-01T17:31:33;10.60;99.90
4687;DHT22;2357;47.316;-1.348;2023-02-01T17:34:02;10.60;99.90
4687;DHT22;2357;47.316;-1.348;2023-02-01T17:36:27;10.60;99.90
4687;DHT22;2357;47.316;-1.348;2023-02-01T17:38:53;10.50;99.90
4687;DHT22;2357;47.316;-1.348;2023-02-01T17:41:18;10.50;99.90
4687;DHT22;2357;47.316;-1.348;2023-02-01T17:43:44;10.50;99.90
4687;DHT22;2357;47.316;-1.348;2023-02-01T17:48:38;10.50;99.90
4687;DHT22;2357;47.316;-1.348;2023-02-01T17:51:04;10.50;99.90
4687;DHT22;2357;47.316;-1.348;2023-02-01T17:53:30;10.40;99.90
4687;DHT22;2357;47.316;-1.348;2023-02-01T17:55:58;10.40;99.90
4687;DHT22;2357;47.316;-1.348;2023-02-01T17:58:24;10.50;99.90
4687;DHT22;2357;47.316;-1.348;2023-02-01T18:00:51;10.50;99.90
4687;DHT22;2357;47.316;-1.348;2023-02-01T18:03:29;10.50;99.90
4687;DHT22;2357;47.316;-1.348;2023-02-01T18:05:56;10.50;99.90
4687;DHT22;2357;47.316;-1.348;2023-02-01T18:08:25;10.40;99.90
4687;DHT22;2357;47.316;-1.348;2023-02-01T18:10:56;10.40;99.90
4687;DHT22;2357;47.316;-1.348;2023-02-01T18:13:26;10.40;99.90
4687;DHT22;2357;47.316;-1.348;2023-02-01T18:15:51;10.40;99.90
4687;DHT22;2357;47.316;-1.348;2023-02-01T18:18:17;10.40;99.90
4687;DHT22;2357;47.316;-1.348;2023-02-01T18:20:44;10.40;99.90
4687;DHT22;2357;47.316;-1.348;2023-02-01T18:23:28;10.40;99.90
4687;DHT22;2357;47.316;-1.348;2023-02-01T18:25:55;10.40;99.90
4687;DHT22;2357;47.316;-1.348;2023-02-01T18:28:20;10.40;99.90
4687;DHT22;2357;47.316;-1.348;2023-02-01T18:30:48;10.40;99.90
4687;DHT22;2357;47.316;-1.348;2023-02-01T18:33:17;10.40;99.90
4687;DHT22;2357;47.316;-1.348;2023-02-01T18:35:44;10.30;99.90
4687;DHT22;2357;47.316;-1.348;2023-02-01T18:38:10;10.30;99.90
4687;DHT22;2357;47.316;-1.348;2023-02-01T18:40:51;10.30;99.90
4687;DHT22;2357;47.316;-1.348;2023-02-01T18:43:18;10.30;99.90
4687;DHT22;2357;47.316;-1.348;2023-02-01T18:45:45;10.30;99.90
4687;DHT22;2357;47.316;-1.348;2023-02-01T18:48:12;10.30;99.90
4687;DHT22;2357;47.316;-1.348;2023-02-01T18:50:40;10.30;99.90
4687;DHT22;2357;47.316;-1.348;2023-02-01T18:53:13;10.30;99.90
4687;DHT22;2357;47.316;-1.348;2023-02-01T18:55:39;10.30;99.90
4687;DHT22;2357;47.316;-1.348;2023-02-01T18:58:06;10.20;99.90
4687;DHT22;2357;47.316;-1.348;2023-02-01T19:00:33;10.20;99.90
4687;DHT22;2357;47.316;-1.348;2023-02-01T19:03:00;10.20;99.90
4687;DHT22;2357;47.316;-1.348;2023-02-01T19:05:26;10.20;99.90